Time;durP1;ratioP1;P1;durP2;ratioP2;P2;SDS_P1;SDS_P2;PMS_P1;PMS_P2;Temp;Humidity;BMP_temperature;BMP_pressure;BME280_temperature;BME280_humidity;BME280_pressure;Samples;Min_cycle;Max_cycle;Signal;HPM_P1;HPM_P2
2021/01/26 00:00:14;;;;;;;21.95;13.93;;;;;;;1.00;88.46;99951.22;1652134;86;21529;-77
2021/01/26 00:02:40;;;;;;;26.60;14.98;;;;;;;0.99;88.49;99952.91;1651948;86;21163;-77
2021/01/26 00:05:08;;;;;;;23.62;15.25;;;;;;;0.98;88.52;99953.75;1652081;85;21131;-77
2021/01/26 00:07:34;;;;;;;22.87;14.55;;;;;;;0.99;88.48;99952.91;1627555;86;21159;-77
2021/01/26 00:10:01;;;;;;;24.75;14.95;;;;;;;0.99;88.52;99957.14;1646316;86;21200;-77
2021/01/26 00:12:27;;;;;;;25.60;15.70;;;;;;;1.00;88.54;99957.58;1652014;86;21158;-77
2021/01/26 00:14:53;;;;;;;;;;;;;;;0.98;88.51;99962.66;1654600;86;21126;-77
2021/01/26 00:17:20;;;;;;;22.85;13.95;;;;;;;0.99;88.53;99961.81;1652211;86;20200;-77
2021/01/26 00:19:46;;;;;;;24.30;14.93;;;;;;;1.01;88.57;99960.98;1651967;86;21154;-77
2021/01/26 00:22:12;;;;;;;27.00;14.98;;;;;;;1.01;88.56;99964.80;1652396;86;21250;-77
2021/01/26 00:24:38;;;;;;;21.90;13.78;;;;;;;1.02;88.57;99965.23;1650783;86;21198;-77
2021/01/26 00:27:05;;;;;;;20.72;14.30;;;;;;;1.02;88.56;99960.14;1650903;86;21214;-77
2021/01/26 00:29:31;;;;;;;23.75;14.58;;;;;;;1.02;88.53;99966.09;1659981;85;21230;-77
2021/01/26 00:31:58;;;;;;;22.37;13.93;;;;;;;1.01;88.51;99962.25;1650733;85;21238;-77
2021/01/26 00:34:24;;;;;;;21.52;14.20;;;;;;;1.01;88.54;99966.93;1650831;86;21278;-77
2021/01/26 00:36:50;;;;;;;24.65;14.73;;;;;;;1.01;88.55;99972.02;1650701;85;21226;-77
2021/01/26 00:39:16;;;;;;;19.62;12.82;;;;;;;1.02;88.56;99970.33;1657879;85;21225;-77
2021/01/26 00:41:43;;;;;;;22.25;13.88;;;;;;;1.01;88.52;99970.75;1660224;85;21194;-77
2021/01/26 00:44:09;;;;;;;22.85;13.53;;;;;;;0.99;88.50;99975.81;1660426;85;21507;-77
2021/01/26 00:46:35;;;;;;;22.02;14.05;;;;;;;1.00;88.50;99980.49;1660313;85;21717;-77
2021/01/26 00:49:01;;;;;;;24.45;14.75;;;;;;;0.98;88.50;99980.47;1660070;85;21257;-77
2021/01/26 00:51:28;;;;;;;20.57;13.45;;;;;;;0.99;88.49;99992.78;1660510;85;21229;-77
2021/01/26 00:53:54;;;;;;;22.32;13.80;;;;;;;0.98;88.51;99984.70;1660743;85;21218;-77
2021/01/26 00:56:20;;;;;;;24.63;14.23;;;;;;;0.96;88.51;99988.50;1660550;85;21222;-77
2021/01/26 00:58:47;;;;;;;24.20;14.35;;;;;;;0.99;88.57;99994.05;1660364;85;21213;-77
2021/01/26 01:01:13;;;;;;;23.80;13.62;;;;;;;0.99;88.57;99990.23;1662577;85;21700;-77
2021/01/26 01:03:40;;;;;;;29.35;16.10;;;;;;;0.98;88.52;99993.20;1664905;85;21197;-77
2021/01/26 01:06:06;;;;;;;;;;;;;;;0.98;88.56;99993.20;1663610;85;21237;-77
2021/01/26 01:08:33;;;;;;;22.45;13.65;;;;;;;1.01;88.57;99990.25;1660430;85;20418;-77
2021/01/26 01:10:59;;;;;;;26.07;15.72;;;;;;;0.99;88.52;99991.51;1661137;85;21206;-78
2021/01/26 01:13:25;;;;;;;25.00;15.40;;;;;;;0.98;88.54;99992.34;1660525;85;21222;-78
2021/01/26 01:15:51;;;;;;;30.57;17.48;;;;;;;0.99;88.53;99995.33;1660319;85;21219;-78
2021/01/26 01:18:18;;;;;;;25.15;15.38;;;;;;;1.01;88.57;99991.53;1660204;86;21603;-78
2021/01/26 01:20:44;;;;;;;28.42;14.73;;;;;;;1.03;88.60;99979.67;1660318;85;27127;-78
2021/01/26 01:23:10;;;;;;;28.38;16.82;;;;;;;1.03;88.59;99977.98;1660213;86;21465;-78
2021/01/26 01:25:37;;;;;;;30.25;16.57;;;;;;;1.02;88.55;99980.09;1659735;86;21217;-78
2021/01/26 01:28:04;;;;;;;25.57;16.15;;;;;;;1.04;88.58;99977.56;1640131;85;21213;-78
2021/01/26 01:30:33;;;;;;;28.62;15.83;;;;;;;1.06;88.59;99976.72;1662561;85;21130;-78
2021/01/26 01:33:02;;;;;;;26.33;15.80;;;;;;;1.05;88.57;99971.19;1661618;85;21528;-78
2021/01/26 01:35:28;;;;;;;31.95;17.98;;;;;;;1.03;88.49;99983.08;1661705;85;21237;-78
2021/01/26 01:37:55;;;;;;;30.45;17.17;;;;;;;1.03;88.50;99977.13;1661748;85;21143;-78
2021/01/26 01:40:32;;;;;;;;;;;;;;;1.02;88.54;99973.73;1664036;85;21114;-78
2021/01/26 01:42:59;;;;;;;30.90;15.83;;;;;;;1.02;88.50;99980.09;1661780;85;20435;-78
2021/01/26 01:45:27;;;;;;;25.92;16.17;;;;;;;1.01;88.49;99977.53;1661822;85;21130;-78
2021/01/26 01:48:04;;;;;;;25.23;14.85;;;;;;;0.98;88.49;99977.92;1661620;85;21146;-78
2021/01/26 01:50:44;;;;;;;24.87;15.35;;;;;;;0.98;88.50;99981.75;1660887;85;21169;-78
2021/01/26 01:53:25;;;;;;;28.32;16.42;;;;;;;0.97;88.52;99977.48;1657643;85;21154;-78
2021/01/26 01:55:58;;;;;;;29.92;17.45;;;;;;;0.96;88.55;99973.23;1665509;85;21141;-78
2021/01/26 01:58:29;;;;;;;29.40;16.02;;;;;;;0.99;88.60;99983.88;1656528;85;21130;-78
2021/01/26 02:01:01;;;;;;;26.50;15.63;;;;;;;1.01;88.60;99987.30;1638326;86;21360;-78
2021/01/26 02:03:34;;;;;;;26.57;16.70;;;;;;;1.02;88.57;99991.97;1660448;85;21178;-78
2021/01/26 02:06:01;;;;;;;27.25;14.45;;;;;;;1.02;88.61;99988.14;1660972;85;21519;-78
2021/01/26 02:08:48;;;;;;;22.52;14.78;;;;;;;1.02;88.54;99996.64;1661540;85;21562;-77
2021/01/26 02:11:14;;;;;;;;;;;;;;;0.99;88.52;100000.00;1663810;85;21118;-77
2021/01/26 02:13:40;;;;;;;;;;;;;;;1.01;88.57;100001.70;1664357;86;21241;-77
2021/01/26 02:16:07;;;;;;;28.25;15.58;;;;;;;1.01;88.59;99993.66;1661613;85;28217;-78
2021/01/26 02:18:59;;;;;;;28.40;17.12;;;;;;;1.02;88.55;99993.23;1661870;85;21158;-78
2021/01/26 02:22:12;;;;;;;28.38;16.62;;;;;;;1.01;88.54;99988.98;1661665;85;21578;-78
2021/01/26 02:25:15;;;;;;;27.37;15.93;;;;;;;0.97;88.51;99988.95;1660423;85;21153;-77
2021/01/26 02:28:23;;;;;;;25.97;15.90;;;;;;;0.97;88.57;99992.77;1655882;85;21190;-77
2021/01/26 02:31:06;;;;;;;28.57;15.50;;;;;;;0.97;88.54;99989.36;1657953;85;21170;-77
2021/01/26 02:33:40;;;;;;;26.25;15.48;;;;;;;0.96;88.54;99994.02;1654007;85;21146;-77
2021/01/26 02:36:41;;;;;;;22.62;15.05;;;;;;;0.95;88.52;99991.03;1656474;86;22043;-77
2021/01/26 02:39:51;;;;;;;22.48;14.95;;;;;;;0.94;88.53;99995.27;1650888;85;21138;-77
2021/01/26 02:42:50;;;;;;;24.63;15.20;;;;;;;0.94;88.56;99993.14;1635878;86;21996;-77
2021/01/26 02:45:41;;;;;;;25.17;15.95;;;;;;;0.95;88.56;99984.67;1624286;87;21169;-77
2021/01/26 02:48:45;;;;;;;24.80;14.98;;;;;;;0.91;88.50;99987.59;1634568;87;21153;-77
2021/01/26 02:51:39;;;;;;;24.50;15.68;;;;;;;0.91;88.54;99987.59;1635687;87;21165;-77
2021/01/26 02:54:20;;;;;;;24.57;15.25;;;;;;;0.93;88.56;99995.25;1636329;87;21118;-77
2021/01/26 02:57:03;;;;;;;27.20;17.07;;;;;;;0.89;88.49;99993.50;1636144;86;21870;-77
2021/01/26 02:59:50;;;;;;;27.35;15.98;;;;;;;0.87;88.49;100002.39;1636200;86;21135;-77
2021/01/26 03:02:24;;;;;;;26.60;15.03;;;;;;;0.85;88.51;99997.69;1635352;87;21261;-77
2021/01/26 03:05:02;;;;;;;30.72;16.23;;;;;;;0.85;88.54;100000.23;1634787;87;21237;-77
2021/01/26 03:07:33;;;;;;;31.55;16.10;;;;;;;0.86;88.56;99997.27;1634798;87;21208;-76
2021/01/26 03:10:13;;;;;;;27.65;16.75;;;;;;;0.86;88.57;99996.00;1636054;87;22229;-76
2021/01/26 03:12:44;;;;;;;32.10;16.10;;;;;;;0.87;88.61;99997.30;1631750;87;21559;-76
2021/01/26 03:15:21;;;;;;;30.40;16.80;;;;;;;0.88;88.58;99987.97;1635949;87;21142;-77
2021/01/26 03:17:56;;;;;;;28.07;16.45;;;;;;;0.87;88.55;99990.94;1632981;87;21133;-77
2021/01/26 03:20:34;;;;;;;25.43;15.78;;;;;;;0.87;88.53;99978.63;1636043;87;21126;-77
2021/01/26 03:23:05;;;;;;;26.10;14.43;;;;;;;0.87;88.55;99979.90;1636161;87;21129;-77
2021/01/26 03:25:33;;;;;;;26.40;15.78;;;;;;;0.86;88.52;99985.82;1634663;87;21169;-77
2021/01/26 03:28:02;;;;;;;23.73;15.60;;;;;;;0.85;88.52;99990.47;1636191;87;21138;-77
2021/01/26 03:30:35;;;;;;;23.73;14.15;;;;;;;0.82;88.45;100001.47;1635849;86;21178;-77
2021/01/26 03:33:12;;;;;;;31.27;16.77;;;;;;;0.81;88.49;100005.27;1634807;87;21118;-77
2021/01/26 03:35:39;;;;;;;24.67;15.43;;;;;;;0.81;88.52;100008.66;1636234;86;21207;-77
2021/01/26 03:38:16;;;;;;;28.20;16.27;;;;;;;0.83;88.56;100012.50;1636065;87;21149;-77
2021/01/26 03:40:43;;;;;;;26.45;15.68;;;;;;;0.82;88.54;100004.43;1652323;85;21183;-77
2021/01/26 03:43:10;;;;;;;24.18;14.80;;;;;;;0.79;88.47;100006.94;1652353;86;21124;-77
2021/01/26 03:45:36;;;;;;;23.35;14.18;;;;;;;0.77;88.48;100012.42;1652394;86;21675;-77
2021/01/26 03:48:10;;;;;;;26.80;14.87;;;;;;;0.76;88.50;100013.25;1652351;86;21297;-77
2021/01/26 03:51:33;;;;;;;22.58;14.13;;;;;;;0.74;88.49;100010.69;1652257;86;21177;-77
2021/01/26 03:54:17;;;;;;;22.48;13.13;;;;;;;0.74;88.50;100016.19;1650707;86;21133;-77
2021/01/26 03:56:54;;;;;;;17.35;12.75;;;;;;;0.73;88.51;100011.52;1652654;86;21121;-77
2021/01/26 03:59:40;;;;;;;20.32;12.53;;;;;;;0.73;88.56;100019.16;1648835;85;21137;-77
2021/01/26 04:02:40;;;;;;;;;;;;;;;0.75;88.52;100015.36;1632192;86;21289;-77
2021/01/26 04:05:23;;;;;;;21.05;12.70;;;;;;;0.74;88.57;100018.32;1612190;87;20286;-77
2021/01/26 04:08:00;;;;;;;21.23;12.53;;;;;;;0.75;88.55;100017.91;1613821;86;21050;-77
2021/01/26 04:10:33;;;;;;;19.05;12.50;;;;;;;0.74;88.54;100027.64;1619301;88;21684;-77
2021/01/26 04:13:03;;;;;;;17.07;11.33;;;;;;;0.74;88.53;100020.86;1625058;88;21192;-77
2021/01/26 04:15:41;;;;;;;19.73;12.20;;;;;;;0.74;88.53;100022.55;1609493;88;21021;-77
2021/01/26 04:18:11;;;;;;;22.37;12.80;;;;;;;0.73;88.51;100018.30;1525858;91;22067;-77
2021/01/26 04:20:38;;;;;;;20.32;12.55;;;;;;;0.74;88.58;100021.28;1547074;91;21193;-77
2021/01/26 04:23:06;;;;;;;22.05;13.00;;;;;;;0.74;88.52;100020.01;1547458;91;21197;-77
2021/01/26 04:25:38;;;;;;;20.75;11.35;;;;;;;0.74;88.52;100022.55;1562739;91;21613;-77
2021/01/26 04:28:12;;;;;;;17.05;11.12;;;;;;;0.74;88.55;100014.92;1546931;91;21252;-77
2021/01/26 04:30:39;;;;;;;18.57;11.83;;;;;;;0.73;88.49;100015.34;1541341;91;21216;-77
2021/01/26 04:33:12;;;;;;;32.80;19.48;;;;;;;0.72;88.50;100018.72;1537291;91;21203;-77
2021/01/26 04:35:39;;;;;;;25.97;16.52;;;;;;;0.73;88.52;100018.30;1539113;91;21238;-77
2021/01/26 04:38:05;;;;;;;;;;;;;;;0.73;88.52;100021.70;1533349;92;21205;-77
2021/01/26 04:40:33;;;;;;;19.05;11.80;;;;;;;0.73;88.54;100016.61;1552033;91;21888;-77
2021/01/26 04:43:13;;;;;;;18.37;13.03;;;;;;;0.74;88.55;100020.01;1558749;90;21181;-77
2021/01/26 04:46:03;;;;;;;17.82;11.80;;;;;;;0.75;88.59;100017.91;1558692;90;21594;-77
2021/01/26 04:49:03;;;;;;;20.60;12.28;;;;;;;0.75;88.58;100019.17;1558835;92;21205;-77
2021/01/26 04:51:56;;;;;;;17.75;11.88;;;;;;;0.78;88.61;100019.22;1554559;90;21172;-77
2021/01/26 04:54:36;;;;;;;18.80;11.48;;;;;;;0.80;88.62;100016.28;1562461;86;21546;-77
2021/01/26 04:57:20;;;;;;;19.62;12.03;;;;;;;0.81;88.61;100016.72;1654870;86;21579;-77
2021/01/26 05:00:00;;;;;;;21.10;11.93;;;;;;;0.81;88.60;100010.35;1661497;86;21146;-77
2021/01/26 05:02:47;;;;;;;18.12;11.93;;;;;;;0.82;88.60;100012.06;1639264;86;21149;-77
2021/01/26 05:05:20;;;;;;;19.48;11.20;;;;;;;0.81;88.55;100016.72;1663432;85;21118;-77
2021/01/26 05:07:53;;;;;;;13.20;9.60;;;;;;;0.81;88.55;100017.98;1666421;86;21598;-77
2021/01/26 05:10:33;;;;;;;13.25;9.93;;;;;;;0.80;88.51;100023.91;1666319;86;21182;-77
2021/01/26 05:13:16;;;;;;;19.15;11.75;;;;;;;0.77;88.51;100020.05;1665907;86;21162;-77
2021/01/26 05:15:47;;;;;;;19.75;12.10;;;;;;;0.75;88.52;100019.17;1665169;86;21146;-77
2021/01/26 05:18:33;;;;;;;23.38;11.65;;;;;;;0.76;88.61;100017.07;1666419;86;21126;-77
2021/01/26 05:21:06;;;;;;;17.98;11.00;;;;;;;0.76;88.56;100020.89;1657700;85;21564;-77
2021/01/26 05:23:38;;;;;;;14.85;9.65;;;;;;;0.76;88.59;100028.10;1650614;86;21127;-77
2021/01/26 05:26:12;;;;;;;16.15;9.28;;;;;;;0.76;88.60;100031.92;1647598;86;21142;-77
2021/01/26 05:28:37;;;;;;;16.20;10.30;;;;;;;0.79;88.60;100037.47;1648136;86;21705;-78
2021/01/26 05:31:08;;;;;;;24.12;12.50;;;;;;;0.80;88.61;100036.22;1652029;84;21491;-78
2021/01/26 05:33:36;;;;;;;22.60;11.28;;;;;;;0.78;88.54;100037.88;1645041;85;21200;-78
2021/01/26 05:36:03;;;;;;;23.32;11.90;;;;;;;0.78;88.55;100040.43;1649092;86;21138;-78
2021/01/26 05:38:30;;;;;;;18.77;11.03;;;;;;;0.78;88.54;100035.76;1665019;86;21132;-78
2021/01/26 05:41:02;;;;;;;;;;;;;;;0.79;88.58;100033.23;1657393;86;21170;-78
2021/01/26 05:43:32;;;;;;;25.62;12.13;;;;;;;0.80;88.58;100037.48;1650493;86;20268;-78
2021/01/26 05:46:02;;;;;;;20.12;10.45;;;;;;;0.80;88.59;100036.63;1646726;85;21536;-78
2021/01/26 05:48:29;;;;;;;21.97;11.35;;;;;;;0.80;88.61;100037.48;1630999;86;21210;-78
2021/01/26 05:51:18;;;;;;;17.45;9.70;;;;;;;0.80;88.53;100034.95;1639314;85;21182;-78
2021/01/26 05:53:50;;;;;;;17.82;10.50;;;;;;;0.79;88.53;100039.59;1621986;86;21163;-76
2021/01/26 05:56:18;;;;;;;15.28;9.35;;;;;;;0.79;88.54;100042.55;1648714;85;21128;-77
2021/01/26 05:58:50;;;;;;;20.30;9.90;;;;;;;0.80;88.58;100043.85;1644977;85;21249;-77
2021/01/26 06:01:32;;;;;;;18.73;9.88;;;;;;;0.81;88.58;100047.25;1638183;85;21457;-78
2021/01/26 06:04:15;;;;;;;16.05;9.15;;;;;;;0.81;88.57;100048.11;1649877;86;22475;-77
2021/01/26 06:06:58;;;;;;;19.48;9.93;;;;;;;0.81;88.54;100053.61;1649970;86;21190;-77
2021/01/26 06:09:38;;;;;;;22.32;11.63;;;;;;;0.82;88.58;100057.87;1649769;86;21206;-77
2021/01/26 06:12:14;;;;;;;18.92;11.05;;;;;;;0.83;88.60;100059.58;1648157;85;21250;-76
2021/01/26 06:14:45;;;;;;;18.87;10.35;;;;;;;0.81;88.56;100059.56;1645422;85;21730;-80
2021/01/26 06:17:24;;;;;;;19.20;10.20;;;;;;;0.83;88.57;100059.58;1651558;85;21451;-79
2021/01/26 06:20:22;;;;;;;18.95;10.38;;;;;;;0.84;88.57;100060.02;1653382;85;21146;-76
2021/01/26 06:22:50;;;;;;;16.45;9.75;;;;;;;0.84;88.58;100062.56;1650085;85;21136;-77
2021/01/26 06:25:32;;;;;;;22.73;10.88;;;;;;;0.81;88.53;100062.11;1653772;85;21910;-77
2021/01/26 06:28:25;;;;;;;22.13;11.73;;;;;;;0.82;88.55;100061.69;1635115;86;21170;-77
2021/01/26 06:30:59;;;;;;;19.23;11.25;;;;;;;0.82;88.55;100069.32;1633198;86;21158;-76
2021/01/26 06:34:04;;;;;;;18.62;10.30;;;;;;;0.82;88.57;100072.72;1615850;86;22324;-76
2021/01/26 06:37:02;;;;;;;13.30;9.33;;;;;;;0.83;88.57;100068.07;1627596;86;21972;-77
2021/01/26 06:40:00;;;;;;;18.95;10.82;;;;;;;0.83;88.56;100072.30;1633997;86;21252;-77
2021/01/26 06:42:40;;;;;;;15.53;9.40;;;;;;;0.84;88.59;100081.65;1660270;86;21158;-76
2021/01/26 06:45:21;;;;;;;17.35;10.08;;;;;;;0.85;88.57;100078.27;1664285;86;21158;-76
2021/01/26 06:48:09;;;;;;;14.38;8.73;;;;;;;0.83;88.54;100079.52;1665690;86;21158;-76
2021/01/26 06:51:17;;;;;;;12.95;9.05;;;;;;;0.85;88.58;100087.18;1664114;86;21689;-76
2021/01/26 06:54:11;;;;;;;13.35;8.78;;;;;;;0.86;88.57;100091.44;1664474;86;21243;-77
2021/01/26 06:56:55;;;;;;;20.55;10.48;;;;;;;0.85;88.56;100098.22;1664800;86;21245;-77
2021/01/26 06:59:52;;;;;;;17.85;10.10;;;;;;;0.85;88.53;100094.81;1659514;86;21205;-77
2021/01/26 07:02:41;;;;;;;11.65;8.28;;;;;;;0.85;88.57;100104.58;1667502;84;21224;-77
2021/01/26 07:05:16;;;;;;;15.53;10.75;;;;;;;0.87;88.61;100095.70;1664262;84;21281;-77
2021/01/26 07:08:18;;;;;;;15.88;10.25;;;;;;;0.87;88.60;100096.97;1659401;86;21278;-77
2021/01/26 07:10:59;;;;;;;18.32;10.32;;;;;;;0.88;88.60;100102.50;1662405;86;21268;-77
2021/01/26 07:13:42;;;;;;;13.25;9.15;;;;;;;0.88;88.58;100103.77;1665127;86;21157;-76
2021/01/26 07:16:36;;;;;;;18.70;10.60;;;;;;;0.90;88.61;100108.47;1666109;86;21174;-77
2021/01/26 07:19:42;;;;;;;15.93;10.78;;;;;;;0.91;88.62;100107.22;1665693;84;21143;-77
2021/01/26 07:22:35;;;;;;;16.52;10.58;;;;;;;0.93;88.64;100109.78;1665949;84;22019;-77
2021/01/26 07:25:24;;;;;;;15.43;10.15;;;;;;;0.95;88.65;100118.30;1665860;86;21138;-77
2021/01/26 07:28:12;;;;;;;15.03;10.78;;;;;;;0.94;88.58;100116.59;1664612;86;21174;-77
2021/01/26 07:30:59;;;;;;;14.40;9.40;;;;;;;0.96;88.64;100114.92;1664937;84;411602;-77
2021/01/26 07:33:50;;;;;;;15.50;9.55;;;;;;;0.97;88.64;100123.85;1695863;84;21333;-77
2021/01/26 07:36:28;;;;;;;14.70;9.55;;;;;;;0.98;88.65;100120.47;1695535;84;22563;-77
2021/01/26 07:39:38;;;;;;;14.50;9.80;;;;;;;0.97;88.60;100119.18;1695208;84;21165;-77
2021/01/26 07:42:22;;;;;;;15.28;9.60;;;;;;;0.98;88.60;100120.89;1708952;83;21158;-78
2021/01/26 07:45:08;;;;;;;14.03;9.60;;;;;;;0.98;88.60;100115.80;1709447;83;21101;-77
2021/01/26 07:47:42;;;;;;;16.95;10.75;;;;;;;0.97;88.60;100119.18;1686809;83;21153;-77
2021/01/26 07:50:31;;;;;;;15.08;10.00;;;;;;;0.99;88.63;100123.88;1701454;83;22084;-77
2021/01/26 07:53:15;;;;;;;15.15;10.43;;;;;;;0.98;88.58;100128.11;1707228;83;21160;-77
2021/01/26 07:55:49;;;;;;;15.30;10.10;;;;;;;0.98;88.58;100128.11;1709122;83;21474;-77
2021/01/26 07:58:16;;;;;;;13.98;9.60;;;;;;;0.98;88.61;100129.80;1709711;83;21110;-78
2021/01/26 08:00:50;;;;;;;15.50;10.10;;;;;;;1.01;88.61;100130.27;1709627;83;21101;-78
2021/01/26 08:03:23;;;;;;;13.83;10.28;;;;;;;1.02;88.63;100127.73;1709401;83;21144;-78
2021/01/26 08:05:53;;;;;;;17.95;10.50;;;;;;;1.05;88.67;100130.72;1706595;83;21181;-77
2021/01/26 08:08:24;;;;;;;14.47;10.40;;;;;;;1.07;88.63;100132.45;1709238;83;21229;-77
2021/01/26 08:11:11;;;;;;;15.25;10.03;;;;;;;1.07;88.61;100131.17;1709521;83;21164;-77
2021/01/26 08:13:50;;;;;;;15.48;9.73;;;;;;;1.09;88.61;100134.60;1699393;83;21181;-78
2021/01/26 08:16:45;;;;;;;17.60;10.08;;;;;;;1.12;88.62;100135.06;1703964;83;21204;-77
2021/01/26 08:19:32;;;;;;;15.95;10.65;;;;;;;1.13;88.61;100131.27;1563089;90;21230;-77
2021/01/26 08:22:00;;;;;;;15.00;10.75;;;;;;;1.16;88.59;100133.00;1571898;90;21220;-78
2021/01/26 08:24:38;;;;;;;12.65;9.30;;;;;;;1.18;88.62;100132.19;1562014;91;21274;-77
2021/01/26 08:27:30;;;;;;;17.20;9.88;;;;;;;1.23;88.63;100133.52;1539203;91;21214;-76
2021/01/26 08:30:03;;;;;;;13.22;9.95;;;;;;;1.26;88.62;100134.84;1586018;89;21251;-78
2021/01/26 08:32:35;;;;;;;18.05;9.68;;;;;;;1.29;88.64;100131.92;1576049;89;21266;-77
2021/01/26 08:35:24;;;;;;;13.55;9.88;;;;;;;1.35;88.65;100136.66;1609051;88;21219;-77
2021/01/26 08:37:53;;;;;;;16.42;10.65;;;;;;;1.43;88.70;100140.16;1589038;89;21201;-77
2021/01/26 08:40:52;;;;;;;15.40;10.23;;;;;;;1.46;88.62;100144.88;1585219;89;21820;-77
2021/01/26 08:43:47;;;;;;;17.00;10.48;;;;;;;1.48;88.61;100141.94;1638126;86;22211;-77
2021/01/26 08:46:40;;;;;;;14.95;10.15;;;;;;;1.52;88.58;100145.38;1631310;86;21277;-76
2021/01/26 08:49:34;;;;;;;18.02;10.55;;;;;;;1.53;88.55;100140.72;1642363;85;21214;-77
2021/01/26 08:52:44;;;;;;;15.40;10.70;;;;;;;1.55;88.56;100139.05;1642423;86;21212;-76
2021/01/26 08:55:33;;;;;;;13.53;10.60;;;;;;;1.55;88.52;100138.64;1641129;86;21809;-76
2021/01/26 08:58:00;;;;;;;19.10;11.57;;;;;;;1.54;88.51;100144.56;1609681;86;21405;-76
2021/01/26 09:00:50;;;;;;;17.05;10.75;;;;;;;1.51;88.45;100134.34;1640507;86;21429;-77
2021/01/26 09:03:30;;;;;;;16.75;10.15;;;;;;;1.51;88.50;100134.75;1589938;88;21329;-78
2021/01/26 09:06:06;;;;;;;18.32;11.73;;;;;;;1.51;88.50;100134.75;1597447;88;21281;-77
2021/01/26 09:08:46;;;;;;;14.75;10.32;;;;;;;1.53;88.54;100149.64;1599021;88;22521;-79
2021/01/26 09:11:38;;;;;;;17.77;11.18;;;;;;;1.54;88.51;100148.81;1599938;88;21963;-78
2021/01/26 09:14:18;;;;;;;16.48;11.15;;;;;;;1.56;88.54;100150.95;1514765;93;21303;-77
2021/01/26 09:16:46;;;;;;;17.60;11.00;;;;;;;1.58;88.55;100146.28;1555878;90;21545;-77
2021/01/26 09:19:44;;;;;;;18.15;11.78;;;;;;;1.62;88.60;100141.66;1555309;90;21710;-77
2021/01/26 09:22:30;;;;;;;15.00;10.53;;;;;;;1.68;88.66;100140.03;1554463;90;21273;-77
2021/01/26 09:25:04;;;;;;;20.92;11.83;;;;;;;1.72;88.60;100140.51;1555954;90;22368;-77
2021/01/26 09:27:34;;;;;;;18.45;11.48;;;;;;;1.75;88.55;100145.22;1554619;90;21225;-77
2021/01/26 09:30:23;;;;;;;19.55;11.55;;;;;;;1.79;88.62;100144.42;1557975;90;21170;-79
2021/01/26 09:33:09;;;;;;;16.42;11.43;;;;;;;1.83;88.54;100143.62;1566606;89;21154;-77
2021/01/26 09:35:47;;;;;;;19.62;11.63;;;;;;;1.87;88.53;100145.79;1552553;91;21147;-76
2021/01/26 09:38:27;;;;;;;17.30;11.78;;;;;;;1.90;88.55;100147.95;1555865;91;21564;-76
2021/01/26 09:41:02;;;;;;;20.90;12.98;;;;;;;1.95;88.56;100151.41;1555793;91;21270;-77
2021/01/26 09:43:37;;;;;;;16.07;11.65;;;;;;;1.95;88.44;100153.11;1554479;90;21190;-77
2021/01/26 09:46:08;;;;;;;18.85;12.50;;;;;;;1.97;88.44;100155.25;1555299;90;21170;-77
2021/01/26 09:48:46;;;;;;;19.57;11.65;;;;;;;1.96;88.41;100156.95;1555401;90;21695;-76
2021/01/26 09:51:25;;;;;;;15.43;10.85;;;;;;;1.97;88.34;100161.63;1551205;90;21185;-77
2021/01/26 09:54:02;;;;;;;17.77;12.15;;;;;;;1.94;88.32;100159.90;1499816;94;21256;-76
2021/01/26 09:56:31;;;;;;;22.25;11.85;;;;;;;1.97;88.41;100161.20;1519157;93;21292;-76
2021/01/26 09:58:59;;;;;;;16.42;11.78;;;;;;;2.02;88.43;100162.53;1521441;92;21295;-76
2021/01/26 10:01:27;;;;;;;18.98;11.33;;;;;;;2.03;88.38;100162.12;1521969;91;21272;-76
2021/01/26 10:04:00;;;;;;;18.65;11.12;;;;;;;2.02;88.34;100168.91;1496858;94;21293;-77
2021/01/26 10:06:28;;;;;;;16.95;11.85;;;;;;;2.01;88.29;100162.10;1521644;92;21301;-77
2021/01/26 10:08:56;;;;;;;18.30;12.50;;;;;;;1.99;88.29;100164.63;1520756;92;21238;-77
2021/01/26 10:11:29;;;;;;;20.23;12.35;;;;;;;2.00;88.33;100173.14;1521056;93;21238;-77
2021/01/26 10:14:25;;;;;;;17.90;12.73;;;;;;;2.01;88.35;100167.20;1521420;92;21259;-77
2021/01/26 10:17:00;;;;;;;16.40;10.93;;;;;;;2.01;88.32;100176.54;1498699;94;21245;-76
2021/01/26 10:19:33;;;;;;;20.30;12.25;;;;;;;1.98;88.26;100181.19;1522614;92;21280;-76
2021/01/26 10:22:12;;;;;;;15.48;10.70;;;;;;;1.94;88.25;100186.67;1500620;94;21273;-77
2021/01/26 10:24:39;;;;;;;20.77;12.35;;;;;;;1.94;88.26;100179.02;1524805;92;21263;-76
2021/01/26 10:27:13;;;;;;;19.90;12.13;;;;;;;1.91;88.19;100187.91;1501044;94;21272;-76
2021/01/26 10:29:42;;;;;;;14.70;10.53;;;;;;;1.90;88.18;100187.89;1520717;92;21677;-76
2021/01/26 10:32:11;;;;;;;16.25;11.80;;;;;;;1.87;88.21;100186.16;1495550;94;21275;-76
2021/01/26 10:34:49;;;;;;;17.52;13.35;;;;;;;1.86;88.22;100186.99;1524087;91;21804;-77
2021/01/26 10:37:30;;;;;;;21.97;12.70;;;;;;;1.85;88.22;100185.28;1501370;94;21290;-77
2021/01/26 10:40:31;;;;;;;19.77;12.75;;;;;;;1.83;88.23;100193.33;1515394;92;21244;-76
2021/01/26 10:43:09;;;;;;;18.35;13.00;;;;;;;1.82;88.27;100182.69;1524038;92;22295;-78
2021/01/26 10:45:46;;;;;;;22.13;12.35;;;;;;;1.80;88.27;100181.81;1499069;94;21804;-77
2021/01/26 10:48:37;;;;;;;16.42;12.05;;;;;;;1.81;88.32;100179.70;1515383;92;21632;-76
2021/01/26 10:51:30;;;;;;;17.23;12.15;;;;;;;1.82;88.33;100186.94;1496357;94;21285;-77
2021/01/26 10:53:56;;;;;;;20.40;13.08;;;;;;;1.84;88.35;100184.84;1521406;92;21250;-78
2021/01/26 10:56:23;;;;;;;;;;;;;;;1.87;88.35;100196.35;1524049;92;22216;-78
2021/01/26 10:58:51;;;;;;;19.05;12.18;;;;;;;1.91;88.41;100194.28;1496368;94;20342;-77
2021/01/26 11:01:21;;;;;;;16.87;11.45;;;;;;;1.95;88.38;100193.48;1524975;91;21179;-78
2021/01/26 11:03:50;;;;;;;14.58;11.10;;;;;;;1.96;88.35;100192.64;1497932;94;21509;-77
2021/01/26 11:06:18;;;;;;;14.53;10.58;;;;;;;1.99;88.31;100198.20;1522857;92;21169;-77
2021/01/26 11:08:47;;;;;;;18.52;11.97;;;;;;;1.98;88.22;100195.21;1495820;94;21594;-77
2021/01/26 11:11:16;;;;;;;16.05;12.45;;;;;;;1.99;88.31;100202.87;1528670;92;22348;-77
2021/01/26 11:13:43;;;;;;;17.17;11.83;;;;;;;2.04;88.29;100203.35;1513382;93;21182;-78
2021/01/26 11:16:09;;;;;;;;;;;;;;;2.04;88.28;100205.48;1544682;91;21230;-77
2021/01/26 11:18:35;;;;;;;15.40;11.43;;;;;;;2.04;88.21;100205.91;1545345;91;20231;-77
2021/01/26 11:21:03;;;;;;;17.20;12.15;;;;;;;2.02;88.20;100208.44;1520452;93;21231;-77
2021/01/26 11:23:29;;;;;;;13.03;11.20;;;;;;;2.04;88.27;100204.62;1544454;91;21161;-77
2021/01/26 11:25:56;;;;;;;16.20;10.35;;;;;;;1.94;88.39;100191.77;1520217;93;28198;-77
2021/01/26 11:28:23;;;;;;;13.72;9.88;;;;;;;1.94;88.39;100191.77;1520402;92;21174;-77
2021/01/26 11:30:49;;;;;;;15.25;10.40;;;;;;;1.98;88.04;100215.61;1546186;91;26641;-77
2021/01/26 11:33:16;;;;;;;13.32;10.10;;;;;;;1.95;88.00;100216.42;1521060;92;21847;-77
2021/01/26 11:35:42;;;;;;;13.13;10.23;;;;;;;1.91;87.94;100221.47;1541986;91;26949;-77
2021/01/26 11:38:08;;;;;;;12.13;9.60;;;;;;;1.85;87.89;100219.70;1522399;93;21215;-78
2021/01/26 11:40:35;;;;;;;12.30;9.75;;;;;;;1.82;87.88;100220.08;1545237;91;28451;-77
2021/01/26 11:43:01;;;;;;;12.18;9.95;;;;;;;1.77;87.81;100225.53;1541117;92;21251;-78
2021/01/26 11:48:22;;;;;;;11.33;8.38;;;;;;;1.72;87.86;100234.80;1545363;91;21265;-80
2021/01/26 11:50:48;;;;;;;13.00;10.45;;;;;;;1.69;87.92;100230.94;1541535;91;21228;-78
2021/01/26 11:53:15;;;;;;;;;;;;;;;1.67;87.96;100230.92;1548117;91;21804;-77
2021/01/26 11:55:42;;;;;;;15.50;10.32;;;;;;;1.65;87.90;100228.77;1544384;91;21008;-77
2021/01/26 11:58:12;;;;;;;;;;;;;;;1.60;87.82;100229.98;1547504;91;21354;-77
2021/01/26 12:00:38;;;;;;;14.55;10.00;;;;;;;1.56;87.81;100233.77;1546304;91;20329;-77
2021/01/26 12:03:06;;;;;;;14.50;10.18;;;;;;;1.53;87.88;100229.48;1569496;89;21227;-77
2021/01/26 12:05:40;;;;;;;13.10;10.35;;;;;;;1.53;87.94;100229.48;1603248;87;21237;-77
2021/01/26 12:08:12;;;;;;;13.18;9.90;;;;;;;1.53;87.95;100226.08;1604406;87;21237;-77
2021/01/26 12:10:40;;;;;;;15.28;10.18;;;;;;;1.54;87.98;100231.20;1544076;91;21248;-77